Time;durP1;ratioP1;P1;durP2;ratioP2;P2;SDS_P1;SDS_P2;PMS_P1;PMS_P2;Temp;Humidity;BMP_temperature;BMP_pressure;BME280_temperature;BME280_humidity;BME280_pressure;Samples;Min_cycle;Max_cycle;Signal;HPM_P1;HPM_P2
2024/01/10 00:01:02;;;;;;;1313.65;999.90;;;;;;;;;;5036005;28;20386;-68
2024/01/10 00:03:29;;;;;;;1317.05;999.90;;;;;;;;;;5035905;28;20017;-68
2024/01/10 00:05:55;;;;;;;1315.53;999.90;;;;;;;;;;5036180;28;20021;-68
2024/01/10 00:08:22;;;;;;;1311.95;999.90;;;;;;;;;;5036042;28;20025;-68
2024/01/10 00:10:48;;;;;;;1316.80;999.90;;;;;;;;;;5035866;28;20068;-68
2024/01/10 00:13:15;;;;;;;1319.18;999.90;;;;;;;;;;5024853;28;20546;-68
2024/01/10 00:15:41;;;;;;;1288.45;999.90;;;;;;;;;;5027251;28;20102;-68
2024/01/10 00:18:08;;;;;;;1311.80;999.90;;;;;;;;;;5033071;28;20033;-68
2024/01/10 00:20:35;;;;;;;1315.05;999.90;;;;;;;;;;5035689;28;20025;-69
2024/01/10 00:23:01;;;;;;;1294.55;999.90;;;;;;;;;;5035897;28;20057;-69
2024/01/10 00:25:28;;;;;;;1304.70;999.90;;;;;;;;;;5035650;28;20104;-69
2024/01/10 00:27:54;;;;;;;1308.70;999.90;;;;;;;;;;5035076;28;20045;-67
2024/01/10 00:30:22;;;;;;;1318.05;999.90;;;;;;;;;;5035333;28;20532;-68
2024/01/10 00:32:48;;;;;;;1305.75;999.90;;;;;;;;;;5035730;28;20045;-69
2024/01/10 00:35:15;;;;;;;1310.43;999.90;;;;;;;;;;5035738;28;20480;-68
2024/01/10 00:37:42;;;;;;;1307.20;999.90;;;;;;;;;;5047515;28;20029;-68
2024/01/10 00:40:08;;;;;;;1294.78;999.90;;;;;;;;;;5055367;28;20021;-68
2024/01/10 00:42:35;;;;;;;1318.65;999.90;;;;;;;;;;5055549;28;20033;-68
2024/01/10 00:45:02;;;;;;;1297.32;999.90;;;;;;;;;;5055267;28;20039;-68
2024/01/10 00:47:29;;;;;;;1284.35;999.90;;;;;;;;;;5055033;28;20082;-68
2024/01/10 00:49:55;;;;;;;1309.75;999.90;;;;;;;;;;5075962;22;20064;-68
2024/01/10 00:52:22;;;;;;;1303.45;999.90;;;;;;;;;;5055298;28;20027;-68
2024/01/10 00:54:48;;;;;;;1300.90;999.90;;;;;;;;;;5054729;28;20029;-67
2024/01/10 00:57:15;;;;;;;1302.85;999.90;;;;;;;;;;5055543;28;20361;-68
2024/01/10 00:59:42;;;;;;;1322.15;999.90;;;;;;;;;;5054941;28;20029;-68
2024/01/10 01:02:08;;;;;;;1291.40;999.90;;;;;;;;;;5054500;28;20427;-68
2024/01/10 01:04:35;;;;;;;1313.70;999.90;;;;;;;;;;5054843;28;20052;-67
2024/01/10 01:07:01;;;;;;;1324.97;999.90;;;;;;;;;;5054970;28;20032;-68
2024/01/10 01:09:28;;;;;;;1312.97;999.90;;;;;;;;;;5054799;28;20025;-68
2024/01/10 01:11:55;;;;;;;1313.45;999.90;;;;;;;;;;5054732;28;20017;-68
2024/01/10 01:14:21;;;;;;;1324.55;999.90;;;;;;;;;;5054671;28;20433;-68
2024/01/10 01:16:48;;;;;;;1317.45;999.90;;;;;;;;;;5054777;28;20385;-68
2024/01/10 01:19:14;;;;;;;1316.80;999.90;;;;;;;;;;5054532;28;20021;-68
2024/01/10 01:21:41;;;;;;;1320.18;999.90;;;;;;;;;;5054717;28;20084;-67
2024/01/10 01:24:08;;;;;;;1311.45;999.90;;;;;;;;;;5054518;28;20036;-67
2024/01/10 01:26:34;;;;;;;1300.20;999.90;;;;;;;;;;5050786;28;20033;-68
2024/01/10 01:29:01;;;;;;;1304.97;999.90;;;;;;;;;;5053139;28;20477;-68
2024/01/10 01:31:27;;;;;;;1322.72;999.90;;;;;;;;;;5054053;28;20067;-68
2024/01/10 01:33:54;;;;;;;1305.20;999.90;;;;;;;;;;5054307;28;20025;-68
2024/01/10 01:36:21;;;;;;;1302.07;999.90;;;;;;;;;;5053805;28;20096;-68
2024/01/10 01:38:47;;;;;;;1333.25;999.90;;;;;;;;;;5054002;28;20043;-70
2024/01/10 01:41:14;;;;;;;1317.63;999.90;;;;;;;;;;5053937;28;20025;-70
2024/01/10 01:43:41;;;;;;;1330.32;999.90;;;;;;;;;;5054161;28;20490;-69
2024/01/10 01:46:08;;;;;;;1325.43;999.90;;;;;;;;;;5053959;28;20489;-68
2024/01/10 01:48:35;;;;;;;1313.03;999.90;;;;;;;;;;5052251;28;20104;-68
2024/01/10 01:51:03;;;;;;;1340.60;999.90;;;;;;;;;;5053082;28;20112;-69
2024/01/10 01:53:30;;;;;;;1317.65;999.90;;;;;;;;;;5053933;28;20458;-68
2024/01/10 01:55:56;;;;;;;1308.82;999.90;;;;;;;;;;5053532;28;20293;-69
2024/01/10 01:58:24;;;;;;;1334.18;999.90;;;;;;;;;;5053629;28;20049;-69
2024/01/10 02:00:51;;;;;;;1301.15;999.90;;;;;;;;;;5053470;28;20017;-69
2024/01/10 02:03:17;;;;;;;1315.25;999.90;;;;;;;;;;5053238;28;20040;-69
2024/01/10 02:05:44;;;;;;;1333.95;999.90;;;;;;;;;;5053477;28;20017;-69
2024/01/10 02:08:10;;;;;;;1336.03;999.90;;;;;;;;;;5053406;28;20101;-70
2024/01/10 02:10:37;;;;;;;1313.95;999.90;;;;;;;;;;5052784;28;20037;-69
2024/01/10 02:13:04;;;;;;;1338.78;999.90;;;;;;;;;;5052437;28;20473;-69
2024/01/10 02:15:31;;;;;;;1309.63;999.90;;;;;;;;;;5052973;28;20536;-69
2024/01/10 02:17:57;;;;;;;1339.88;999.90;;;;;;;;;;5052817;28;20100;-66
2024/01/10 02:20:24;;;;;;;1337.75;999.90;;;;;;;;;;5052920;28;20028;-69
2024/01/10 02:22:50;;;;;;;1303.53;999.90;;;26.40;99.90;;;;;;5052931;28;20017;-69
2024/01/10 02:25:17;;;;;;;1310.25;999.90;;;26.50;99.90;;;;;;5052697;28;20033;-67
2024/01/10 02:27:43;;;;;;;1337.85;999.90;;;26.50;99.90;;;;;;5052898;28;20017;-66
2024/01/10 02:30:11;;;;;;;1320.30;999.90;;;26.60;99.90;;;;;;5053021;28;20032;-69
2024/01/10 02:32:37;;;;;;;1335.05;999.90;;;26.60;99.90;;;;;;5052902;28;20017;-68
2024/01/10 02:35:05;;;;;;;1326.70;999.90;;;26.60;99.90;;;;;;5052879;28;20063;-67
2024/01/10 02:37:31;;;;;;;1340.38;999.90;;;26.70;99.90;;;;;;5052955;28;20382;-69
2024/01/10 02:39:58;;;;;;;1332.30;999.90;;;26.60;99.90;;;;;;5053213;28;20033;-69
2024/01/10 02:42:24;;;;;;;1328.57;999.90;;;26.60;99.90;;;;;;5053231;28;20021;-68
2024/01/10 02:44:51;;;;;;;1327.32;999.90;;;26.60;99.90;;;;;;5053430;28;20017;-69
2024/01/10 02:47:17;;;;;;;1337.03;999.90;;;26.70;99.90;;;;;;5053285;28;20032;-67
2024/01/10 02:49:44;;;;;;;1303.03;999.90;;;26.80;99.90;;;;;;5051491;28;20034;-67
2024/01/10 02:52:10;;;;;;;1309.35;999.90;;;26.80;99.90;;;;;;5049558;28;20024;-67
2024/01/10 02:54:37;;;;;;;1340.93;999.90;;;26.80;99.90;;;;;;5052836;28;20021;-68
2024/01/10 02:57:03;;;;;;;1323.38;999.90;;;26.90;99.90;;;;;;5052979;28;20140;-67
2024/01/10 02:59:30;;;;;;;1333.80;999.90;;;27.00;99.90;;;;;;5053224;28;20071;-70
2024/01/10 03:01:56;;;;;;;1328.88;999.90;;;27.00;99.90;;;;;;5053072;28;20033;-68
2024/01/10 03:04:23;;;;;;;1337.22;999.90;;;27.00;99.90;;;;;;5053283;28;20032;-68
2024/01/10 03:06:49;;;;;;;1295.40;999.90;;;27.00;99.90;;;;;;5053062;28;20029;-65
2024/01/10 03:09:16;;;;;;;1346.47;999.90;;;27.10;99.90;;;;;;5052983;28;20477;-68
2024/01/10 03:11:43;;;;;;;1335.72;999.90;;;27.20;99.90;;;;;;5052846;28;20021;-68
2024/01/10 03:14:10;;;;;;;1321.47;999.90;;;27.20;99.90;;;;;;5052971;28;20078;-67
2024/01/10 03:16:37;;;;;;;1339.50;999.90;;;27.30;99.90;;;;;;5052642;28;20197;-66
2024/01/10 03:19:04;;;;;;;1342.13;999.90;;;27.40;99.90;;;;;;5052967;28;20036;-67
2024/01/10 03:21:30;;;;;;;1345.53;999.90;;;27.50;99.90;;;;;;5052914;28;20090;-68
2024/01/10 03:23:58;;;;;;;1342.10;999.90;;;27.60;99.90;;;;;;5053337;28;20437;-68
2024/01/10 03:26:25;;;;;;;1338.53;999.90;;;27.60;99.90;;;;;;5054630;28;20025;-66
2024/01/10 03:28:52;;;;;;;1343.07;999.90;;;27.70;99.90;;;;;;5054385;28;20029;-67
2024/01/10 03:31:19;;;;;;;1340.00;999.90;;;27.80;99.90;;;;;;5056672;28;20060;-67
2024/01/10 03:33:46;;;;;;;1333.88;999.90;;;27.80;99.90;;;;;;5037886;28;20025;-68
2024/01/10 03:36:15;;;;;;;1327.88;999.90;;;27.90;99.90;;;;;;5036629;28;20466;-68
2024/01/10 03:38:42;;;;;;;1325.55;999.90;;;27.90;99.90;;;;;;5036737;28;20100;-68
2024/01/10 03:41:14;;;;;;;1307.75;999.90;;;27.90;99.90;;;;;;5036425;28;20017;-68
2024/01/10 03:43:41;;;;;;;1301.57;999.90;;;27.90;99.90;;;;;;5036527;28;20032;-67
2024/01/10 03:46:08;;;;;;;1347.68;999.90;;;28.00;99.90;;;;;;5036513;28;20108;-67
2024/01/10 03:48:35;;;;;;;1337.70;999.90;;;28.00;99.90;;;;;;5036120;28;20036;-68
2024/01/10 03:51:01;;;;;;;1301.70;999.90;;;28.10;99.90;;;;;;5036367;28;20021;-68
2024/01/10 03:53:28;;;;;;;1337.15;999.90;;;28.10;99.90;;;;;;5036394;28;20022;-67
2024/01/10 03:55:54;;;;;;;1325.80;999.90;;;28.10;99.90;;;;;;5036096;28;20029;-67
2024/01/10 03:58:22;;;;;;;1304.60;999.90;;;28.10;99.90;;;;;;5036183;28;20029;-66
2024/01/10 04:00:48;;;;;;;1335.28;999.90;;;28.10;99.90;;;;;;5036211;28;20018;-67
2024/01/10 04:03:16;;;;;;;1305.10;999.90;;;28.00;99.90;;;;;;5036233;28;20093;-67
2024/01/10 04:05:43;;;;;;;1308.25;999.90;;;28.10;99.90;;;;;;5048768;28;20029;-69
2024/01/10 04:08:09;;;;;;;1344.63;999.90;;;28.10;99.90;;;;;;5055867;28;20099;-67
2024/01/10 04:10:36;;;;;;;1344.07;999.90;;;28.20;99.90;;;;;;5054285;28;20447;-68
2024/01/10 04:13:02;;;;;;;1342.90;999.90;;;28.30;99.90;;;;;;5055656;28;20048;-67
2024/01/10 04:15:28;;;;;;;1252.05;999.90;;;28.20;99.90;;;;;;5055573;28;20020;-67
2024/01/10 04:17:55;;;;;;;1308.28;999.90;;;28.30;99.90;;;;;;5055590;28;20517;-66
2024/01/10 04:20:21;;;;;;;1298.32;999.90;;;28.40;99.90;;;;;;5055388;28;20104;-68
2024/01/10 04:22:48;;;;;;;1342.85;999.90;;;28.50;99.90;;;;;;5055525;28;20490;-68
2024/01/10 04:25:15;;;;;;;1334.22;999.90;;;28.50;99.90;;;;;;5055445;28;20025;-68
2024/01/10 04:27:41;;;;;;;1310.20;999.90;;;28.50;99.90;;;;;;5055077;28;20043;-67
2024/01/10 04:30:08;;;;;;;1349.25;999.90;;;28.50;99.90;;;;;;5055129;28;20154;-67
2024/01/10 04:32:35;;;;;;;1322.63;999.90;;;28.60;99.90;;;;;;5055634;28;20021;-67
2024/01/10 04:35:01;;;;;;;1310.35;999.90;;;28.60;99.90;;;;;;5055622;28;20099;-67
2024/01/10 04:37:27;;;;;;;1280.50;999.90;;;28.60;99.90;;;;;;5054705;28;20021;-67
2024/01/10 04:39:54;;;;;;;1293.55;999.90;;;28.50;99.90;;;;;;5055497;28;20025;-67
2024/01/10 04:42:20;;;;;;;1317.05;999.90;;;28.70;99.90;;;;;;5055137;28;20017;-67
2024/01/10 04:44:47;;;;;;;1282.90;999.90;;;28.80;99.90;;;;;;5055451;28;20029;-67
2024/01/10 04:47:13;;;;;;;1297.72;999.90;;;28.90;99.90;;;;;;5055024;28;20020;-66
2024/01/10 04:49:40;;;;;;;1288.50;999.90;;;28.90;99.90;;;;;;5054284;28;20068;-65
2024/01/10 04:52:06;;;;;;;1289.55;999.90;;;28.90;99.90;;;;;;5055192;28;20533;-65
2024/01/10 04:54:33;;;;;;;1320.65;999.90;;;29.00;99.90;;;;;;5055166;28;20076;-66
2024/01/10 04:57:00;;;;;;;1289.15;999.90;;;29.00;99.90;;;;;;5055033;28;20561;-66
2024/01/10 04:59:26;;;;;;;1319.10;999.90;;;29.00;99.90;;;;;;5055214;28;20029;-65
2024/01/10 05:01:53;;;;;;;1290.25;999.90;;;29.00;99.90;;;;;;5055059;28;20052;-66
2024/01/10 05:04:20;;;;;;;1311.28;999.90;;;29.00;99.90;;;;;;5054894;28;20029;-69
2024/01/10 05:06:47;;;;;;;1314.28;999.90;;;29.00;99.90;;;;;;5055081;28;20044;-65
2024/01/10 05:09:13;;;;;;;1308.18;999.90;;;29.00;99.90;;;;;;5054963;28;20033;-66
2024/01/10 05:11:40;;;;;;;1294.55;999.90;;;29.00;99.90;;;;;;5054089;28;20102;-66
2024/01/10 05:14:07;;;;;;;1258.30;999.90;;;29.00;99.90;;;;;;5054780;28;20036;-64
2024/01/10 05:16:34;;;;;;;1265.88;999.90;;;29.00;99.90;;;;;;5055222;28;20012;-66
2024/01/10 05:19:03;;;;;;;1300.82;999.90;;;29.00;99.90;;;;;;5042426;28;20030;-69
2024/01/10 05:21:32;;;;;;;1296.20;999.90;;;29.00;99.90;;;;;;5048893;28;20528;-69
2024/01/10 05:23:58;;;;;;;1268.38;999.90;;;29.10;99.90;;;;;;5052178;28;20468;-68
2024/01/10 05:26:25;;;;;;;1306.00;999.90;;;29.10;99.90;;;;;;5051669;28;20386;-72
2024/01/10 05:28:51;;;;;;;1298.13;999.90;;;29.10;99.90;;;;;;5054648;28;20079;-70
2024/01/10 05:31:18;;;;;;;1320.05;999.90;;;29.10;99.90;;;;;;5054530;28;20028;-71
2024/01/10 05:33:44;;;;;;;1314.97;999.90;;;29.10;99.90;;;;;;5053922;28;20462;-67
2024/01/10 05:36:12;;;;;;;1262.45;999.90;;;29.10;99.90;;;;;;5053917;28;20466;-68
2024/01/10 05:38:40;;;;;;;1343.03;999.90;;;29.20;99.90;;;;;;5049893;28;20530;-71
2024/01/10 05:41:06;;;;;;;1308.18;999.90;;;29.30;99.90;;;;;;5053881;28;20032;-70
2024/01/10 05:43:33;;;;;;;1328.15;999.90;;;29.40;99.90;;;;;;5054027;28;20009;-69
2024/01/10 05:46:00;;;;;;;1291.35;999.90;;;29.50;99.90;;;;;;5053597;28;20079;-69
2024/01/10 05:48:26;;;;;;;1327.78;999.90;;;29.50;99.90;;;;;;5053183;28;20025;-68
2024/01/10 05:50:53;;;;;;;1321.97;999.90;;;29.50;99.90;;;;;;5053386;28;20482;-70
2024/01/10 05:53:19;;;;;;;1318.30;999.90;;;29.60;99.90;;;;;;5053310;28;20020;-71
2024/01/10 05:55:46;;;;;;;1319.90;999.90;;;29.60;99.90;;;;;;5053108;28;20021;-71
2024/01/10 05:58:12;;;;;;;1313.00;999.90;;;29.70;99.90;;;;;;5051136;28;20009;-70
2024/01/10 06:00:39;;;;;;;1307.72;999.90;;;29.80;99.90;;;;;;5053154;28;20029;-69
2024/01/10 06:03:05;;;;;;;1341.53;999.90;;;29.90;99.90;;;;;;5052999;28;20013;-71
2024/01/10 06:05:32;;;;;;;1287.65;999.90;;;29.80;99.90;;;;;;5045168;28;20044;-71
2024/01/10 06:07:58;;;;;;;1289.85;999.90;;;29.80;99.90;;;;;;5048504;28;20108;-74
2024/01/10 06:10:25;;;;;;;1280.65;999.90;;;29.80;99.90;;;;;;5053681;28;20025;-73
2024/01/10 06:12:51;;;;;;;1339.03;999.90;;;29.80;99.90;;;;;;5050627;28;20505;-69
2024/01/10 06:15:18;;;;;;;1280.45;999.90;;;29.80;99.90;;;;;;5053206;28;20052;-72
2024/01/10 06:17:44;;;;;;;1298.53;999.90;;;29.80;99.90;;;;;;5052976;28;20100;-72
2024/01/10 06:20:11;;;;;;;1317.28;999.90;;;29.80;99.90;;;;;;5052653;28;20025;-68
2024/01/10 06:22:37;;;;;;;1290.05;999.90;;;29.80;99.90;;;;;;5051916;28;20040;-66
2024/01/10 06:25:04;;;;;;;1275.53;999.90;;;29.70;99.90;;;;;;5051042;28;20028;-66
2024/01/10 06:27:31;;;;;;;1317.70;999.90;;;29.70;99.90;;;;;;5052862;28;20059;-67
2024/01/10 06:29:57;;;;;;;1307.95;999.90;;;29.70;99.90;;;;;;5052943;28;20029;-66
2024/01/10 06:32:24;;;;;;;1321.53;999.90;;;29.70;99.90;;;;;;5052187;28;20076;-67
2024/01/10 06:34:50;;;;;;;1312.38;999.90;;;29.70;99.90;;;;;;5048725;28;20018;-66
2024/01/10 06:37:17;;;;;;;1298.30;999.90;;;29.80;99.90;;;;;;5053264;28;20013;-67
2024/01/10 06:39:43;;;;;;;1266.30;999.90;;;29.80;99.90;;;;;;5053358;28;20021;-70
2024/01/10 06:42:11;;;;;;;1265.57;999.90;;;29.90;99.90;;;;;;5053039;28;20016;-66
2024/01/10 06:44:38;;;;;;;1310.00;999.90;;;30.00;99.90;;;;;;5053223;28;20051;-66
2024/01/10 06:47:05;;;;;;;1353.95;999.90;;;30.00;99.90;;;;;;5053241;28;20501;-71
2024/01/10 06:49:31;;;;;;;1326.88;999.90;;;30.00;99.90;;;;;;5052906;28;20095;-72
2024/01/10 06:52:00;;;;;;;1345.90;999.90;;;30.00;99.90;;;;;;5053186;28;20025;-71
2024/01/10 06:54:26;;;;;;;1328.68;999.90;;;30.00;99.90;;;;;;5053096;28;20021;-70
2024/01/10 06:56:53;;;;;;;1320.47;999.90;;;30.00;99.90;;;;;;5053013;28;20523;-68
2024/01/10 06:59:19;;;;;;;1271.43;999.90;;;30.00;99.90;;;;;;5053941;28;20382;-66
2024/01/10 07:01:50;;;;;;;1308.75;999.90;;;30.00;99.90;;;;;;5057280;28;20029;-67
2024/01/10 07:04:17;;;;;;;1288.40;999.90;;;30.00;99.90;;;;;;5056669;28;20061;-68
2024/01/10 07:06:44;;;;;;;1280.90;999.90;;;30.00;99.90;;;;;;5052688;28;20162;-67
2024/01/10 07:09:11;;;;;;;1280.82;999.90;;;30.00;99.90;;;;;;5054749;28;20547;-66
2024/01/10 07:11:37;;;;;;;1266.85;999.90;;;30.00;99.90;;;;;;5056747;28;20028;-72
2024/01/10 07:14:04;;;;;;;1258.38;999.90;;;30.00;99.90;;;;;;5056802;28;20009;-67
2024/01/10 07:16:30;;;;;;;1302.18;999.90;;;30.10;99.90;;;;;;5056728;28;20021;-66
2024/01/10 07:18:57;;;;;;;1278.45;999.90;;;30.10;99.90;;;;;;5056387;28;20371;-67
2024/01/10 07:21:23;;;;;;;1299.95;999.90;;;30.00;99.90;;;;;;5054608;28;20041;-68
2024/01/10 07:23:50;;;;;;;1292.32;999.90;;;30.00;99.90;;;;;;5047173;28;20021;-67
2024/01/10 07:26:16;;;;;;;1308.95;999.90;;;30.00;99.90;;;;;;5045720;28;20090;-70
2024/01/10 07:28:43;;;;;;;1298.97;999.90;;;30.00;99.90;;;;;;5056084;28;20027;-70
2024/01/10 07:31:11;;;;;;;1282.10;999.90;;;30.00;99.90;;;;;;5056248;28;20028;-74
2024/01/10 07:33:37;;;;;;;1286.82;999.90;;;30.00;99.90;;;;;;5056697;28;20385;-71
2024/01/10 07:36:04;;;;;;;1274.32;999.90;;;30.00;99.90;;;;;;5056196;28;20017;-70
2024/01/10 07:38:31;;;;;;;1252.28;999.90;;;30.00;99.90;;;;;;5056356;28;20028;-71
2024/01/10 07:40:59;;;;;;;1250.15;999.90;;;30.10;99.90;;;;;;5054574;28;20071;-71
2024/01/10 07:43:26;;;;;;;1258.18;999.90;;;30.10;99.90;;;;;;5053251;28;20359;-69
2024/01/10 07:45:53;;;;;;;1260.78;999.90;;;30.10;99.90;;;;;;5056204;28;20107;-72
2024/01/10 07:48:20;;;;;;;1247.03;999.90;;;30.20;99.90;;;;;;5056023;28;20059;-71
2024/01/10 07:50:47;;;;;;;1271.95;999.90;;;30.20;99.90;;;;;;5055809;28;20482;-66
2024/01/10 07:53:13;;;;;;;1288.78;999.90;;;30.10;99.90;;;;;;5056373;28;20021;-67
2024/01/10 07:55:40;;;;;;;1295.53;999.90;;;30.10;99.90;;;;;;5056226;28;20032;-67
2024/01/10 07:58:07;;;;;;;1270.20;999.90;;;30.10;99.90;;;;;;5055727;28;20147;-67
2024/01/10 08:00:33;;;;;;;1248.10;999.90;;;30.10;99.90;;;;;;5056022;28;20028;-67
2024/01/10 08:03:00;;;;;;;1260.45;999.90;;;30.20;99.90;;;;;;5055937;28;20388;-67
2024/01/10 08:05:27;;;;;;;1318.18;999.90;;;30.20;99.90;;;;;;5053098;28;20025;-66
2024/01/10 08:07:54;;;;;;;1306.88;999.90;;;30.20;99.90;;;;;;5056201;28;20021;-66
2024/01/10 08:10:20;;;;;;;1313.53;999.90;;;30.20;99.90;;;;;;5054989;28;20021;-67
2024/01/10 08:12:47;;;;;;;1265.53;999.90;;;30.20;99.90;;;;;;5052407;28;20013;-67
2024/01/10 08:15:14;;;;;;;1293.72;999.90;;;30.20;99.90;;;;;;5055951;28;20020;-70
2024/01/10 08:17:40;;;;;;;1299.07;999.90;;;30.20;99.90;;;;;;5049148;28;20024;-70
2024/01/10 08:20:10;;;;;;;1297.53;999.90;;;30.30;99.90;;;;;;5052700;28;20074;-70
2024/01/10 08:22:37;;;;;;;1303.00;999.90;;;30.20;99.90;;;;;;5055516;28;20480;-70
2024/01/10 08:25:05;;;;;;;1303.82;999.90;;;30.30;99.90;;;;;;5055398;28;20056;-70
2024/01/10 08:27:31;;;;;;;1272.78;999.90;;;30.20;99.90;;;;;;5055188;28;20013;-69
2024/01/10 08:29:58;;;;;;;1291.82;999.90;;;30.30;99.90;;;;;;5052440;28;20025;-70
2024/01/10 08:32:24;;;;;;;1298.20;999.90;;;30.30;99.90;;;;;;5055220;28;20009;-68
2024/01/10 08:34:51;;;;;;;1295.00;999.90;;;30.20;99.90;;;;;;5055039;28;20017;-70
2024/01/10 08:37:18;;;;;;;1277.35;999.90;;;30.30;99.90;;;;;;5052275;28;20028;-70
2024/01/10 08:39:44;;;;;;;1306.55;999.90;;;30.30;99.90;;;;;;5055100;28;20106;-69
2024/01/10 08:42:11;;;;;;;1310.38;999.90;;;30.30;99.90;;;;;;5054907;28;20451;-71
2024/01/10 08:44:37;;;;;;;1292.50;999.90;;;30.30;99.90;;;;;;5052211;28;20029;-71
2024/01/10 08:47:04;;;;;;;1262.38;999.90;;;30.20;99.90;;;;;;5054888;28;20122;-71
2024/01/10 08:49:30;;;;;;;1301.13;999.90;;;30.30;99.90;;;;;;5054529;28;20052;-71
2024/01/10 08:51:57;;;;;;;1303.13;999.90;;;30.30;99.90;;;;;;5055092;28;20052;-71
2024/01/10 08:54:25;;;;;;;1309.18;999.90;;;30.30;99.90;;;;;;5054892;28;20027;-71
2024/01/10 08:56:51;;;;;;;1317.85;999.90;;;30.40;99.90;;;;;;5054649;28;20066;-71
2024/01/10 08:59:18;;;;;;;1319.93;999.90;;;30.30;99.90;;;;;;5052316;28;20025;-67
2024/01/10 09:01:45;;;;;;;1312.35;999.90;;;30.30;99.90;;;;;;5054906;28;20045;-66
2024/01/10 09:04:12;;;;;;;1287.80;999.90;;;30.30;99.90;;;;;;5054577;28;20035;-67
2024/01/10 09:06:39;;;;;;;1311.38;999.90;;;30.30;99.90;;;;;;5052149;28;20544;-66
2024/01/10 09:09:06;;;;;;;1319.38;999.90;;;30.30;99.90;;;;;;5054172;28;20029;-70
2024/01/10 09:11:33;;;;;;;1315.93;999.90;;;30.30;99.90;;;;;;5053838;28;20383;-67
2024/01/10 09:13:59;;;;;;;1303.40;999.90;;;30.30;99.90;;;;;;5054049;28;20032;-68
2024/01/10 09:16:29;;;;;;;1328.22;999.90;;;30.30;99.90;;;;;;5054289;28;20405;-68
2024/01/10 09:18:57;;;;;;;1322.00;999.90;;;30.20;99.90;;;;;;5054116;28;20024;-68
2024/01/10 09:21:26;;;;;;;1323.50;999.90;;;30.20;99.90;;;;;;5051729;28;20107;-69
2024/01/10 09:23:53;;;;;;;1331.43;999.90;;;30.20;99.90;;;;;;5052430;28;20021;-70
2024/01/10 09:26:19;;;;;;;1326.63;999.90;;;30.20;99.90;;;;;;5053635;28;20509;-69
2024/01/10 09:28:46;;;;;;;1319.28;999.90;;;30.20;99.90;;;;;;5053659;28;20013;-67
2024/01/10 09:31:12;;;;;;;1334.28;999.90;;;30.20;99.90;;;;;;5055477;28;20040;-69
2024/01/10 09:33:39;;;;;;;1315.40;999.90;;;30.20;99.90;;;;;;5053380;28;20374;-68
2024/01/10 09:36:06;;;;;;;1336.00;999.90;;;30.20;99.90;;;;;;5054087;28;20094;-67
2024/01/10 09:38:41;;;;;;;1335.78;999.90;;;30.20;99.90;;;;;;5054160;28;20014;-70
2024/01/10 09:41:09;;;;;;;1331.13;999.90;;;30.20;99.90;;;;;;5052440;28;20057;-67
2024/01/10 09:43:36;;;;;;;1332.40;999.90;;;30.20;99.90;;;;;;5052253;28;20029;-71
2024/01/10 09:46:03;;;;;;;1342.65;999.90;;;30.20;99.90;;;;;;5053793;28;20033;-68
2024/01/10 09:48:30;;;;;;;1346.95;999.90;;;30.20;99.90;;;;;;5053543;28;20099;-70
2024/01/10 09:50:57;;;;;;;1332.18;999.90;;;30.20;99.90;;;;;;5053398;28;20055;-69
2024/01/10 09:53:29;;;;;;;1360.25;999.90;;;30.20;99.90;;;;;;5053681;28;20044;-68
2024/01/10 09:55:56;;;;;;;1343.68;999.90;;;30.20;99.90;;;;;;5053174;28;20104;-66
2024/01/10 09:58:26;;;;;;;1349.68;999.90;;;30.20;99.90;;;;;;5053644;28;20100;-68
2024/01/10 10:00:53;;;;;;;1357.18;999.90;;;30.20;99.90;;;;;;5053267;28;20033;-69
2024/01/10 10:03:20;;;;;;;1363.22;999.90;;;30.10;99.90;;;;;;5050815;28;20074;-67
2024/01/10 10:05:46;;;;;;;1360.47;999.90;;;30.10;99.90;;;;;;5053828;28;20355;-70
2024/01/10 10:08:15;;;;;;;1349.43;999.90;;;30.10;99.90;;;;;;5053063;28;20201;-69
2024/01/10 10:10:44;;;;;;;1363.60;999.90;;;30.20;99.90;;;;;;5053305;28;20029;-69
2024/01/10 10:13:23;;;;;;;1372.85;999.90;;;30.10;99.90;;;;;;5053090;28;20148;-69
2024/01/10 10:16:09;;;;;;;1331.28;999.90;;;30.20;99.90;;;;;;5051768;28;20104;-69
2024/01/10 10:18:36;;;;;;;1281.85;999.90;;;30.10;99.90;;;;;;5052847;28;20386;-68
2024/01/10 10:21:13;;;;;;;1279.90;999.90;;;30.10;99.90;;;;;;5053105;28;20016;-69
2024/01/10 10:23:42;;;;;;;1263.72;999.90;;;30.10;99.90;;;;;;5050447;28;20021;-68
2024/01/10 10:26:20;;;;;;;1289.55;999.90;;;30.00;99.90;;;;;;5052883;28;20111;-69
2024/01/10 10:28:51;;;;;;;1337.03;999.90;;;30.10;99.90;;;;;;5051186;28;20070;-72
2024/01/10 10:31:19;;;;;;;1360.78;999.90;;;30.10;99.90;;;;;;5053066;28;20342;-72
2024/01/10 10:33:48;;;;;;;1365.40;999.90;;;30.00;99.90;;;;;;5049562;28;20057;-71
2024/01/10 10:36:15;;;;;;;1355.90;999.90;;;30.00;99.90;;;;;;5052877;28;20029;-72
2024/01/10 10:38:41;;;;;;;1362.38;999.90;;;29.90;99.90;;;;;;5042362;28;20024;-71
2024/01/10 10:41:10;;;;;;;1362.82;999.90;;;29.90;99.90;;;;;;5052463;28;20469;-72
2024/01/10 10:43:38;;;;;;;1344.32;999.90;;;29.90;99.90;;;;;;5052607;28;20025;-71
2024/01/10 10:46:06;;;;;;;1368.40;999.90;;;29.90;99.90;;;;;;5050137;28;20025;-72
2024/01/10 10:48:34;;;;;;;1335.45;999.90;;;30.00;99.90;;;;;;5051974;28;20041;-68
2024/01/10 10:51:07;;;;;;;1313.55;999.90;;;30.00;99.90;;;;;;5052813;28;20041;-68
2024/01/10 10:53:36;;;;;;;1346.03;999.90;;;30.00;99.90;;;;;;5052656;28;20025;-68
2024/01/10 10:56:05;;;;;;;1366.43;999.90;;;30.00;99.90;;;;;;5053288;28;20032;-69
2024/01/10 10:58:36;;;;;;;1373.43;999.90;;;29.90;99.90;;;;;;5053360;28;20041;-68
2024/01/10 11:01:07;;;;;;;1359.90;999.90;;;29.90;99.90;;;;;;5053035;28;20035;-69
2024/01/10 11:03:37;;;;;;;1341.80;999.90;;;29.90;99.90;;;;;;5053203;28;20056;-69
2024/01/10 11:06:05;;;;;;;1366.05;999.90;;;29.90;99.90;;;;;;5052671;28;20399;-71
2024/01/10 11:09:03;;;;;;;1332.32;999.90;;;29.90;99.90;;;;;;5052704;28;20067;-70
2024/01/10 11:11:32;;;;;;;1341.82;999.90;;;29.90;99.90;;;;;;5052736;28;20456;-72
2024/01/10 11:14:18;;;;;;;1337.82;999.90;;;29.90;99.90;;;;;;5052694;28;20021;-70
2024/01/10 11:16:56;;;;;;;1313.82;999.90;;;29.90;99.90;;;;;;5052106;28;20379;-69
2024/01/10 11:19:33;;;;;;;1296.68;999.90;;;29.80;99.90;;;;;;5052528;28;20032;-68
2024/01/10 11:22:28;;;;;;;1354.70;999.90;;;29.80;99.90;;;;;;5045251;28;20033;-70
2024/01/10 11:24:55;;;;;;;1370.93;999.90;;;29.70;99.90;;;;;;5049529;28;20029;-69
2024/01/10 11:27:22;;;;;;;1350.00;999.90;;;29.70;99.90;;;;;;5053261;28;20029;-72
2024/01/10 11:29:49;;;;;;;1362.97;999.90;;;29.70;99.90;;;;;;5054126;28;20025;-68
2024/01/10 11:32:17;;;;;;;1374.78;999.90;;;29.70;99.90;;;;;;5054345;28;20017;-69
2024/01/10 11:34:58;;;;;;;1373.82;999.90;;;29.70;99.90;;;;;;5052659;28;20063;-68
2024/01/10 11:37:29;;;;;;;1392.80;999.90;;;29.80;99.90;;;;;;5051004;28;20074;-69
2024/01/10 11:39:56;;;;;;;1334.22;999.90;;;29.70;99.90;;;;;;5050648;28;20031;-72
2024/01/10 11:42:52;;;;;;;1359.45;999.90;;;29.70;99.90;;;;;;5049326;28;20031;-68
2024/01/10 11:45:38;;;;;;;1384.70;999.90;;;29.70;99.90;;;;;;5049632;28;20032;-70
2024/01/10 11:48:07;;;;;;;1383.57;999.90;;;29.70;99.90;;;;;;5053786;28;20032;-68
2024/01/10 11:50:35;;;;;;;1372.47;999.90;;;29.70;99.90;;;;;;5055349;28;20037;-71
2024/01/10 11:53:03;;;;;;;1358.85;999.90;;;29.60;99.90;;;;;;5055443;28;20017;-74
2024/01/10 11:55:52;;;;;;;1354.53;999.90;;;29.60;99.90;;;;;;5054739;28;20037;-70
2024/01/10 11:58:18;;;;;;;1342.00;999.90;;;29.60;99.90;;;;;;5051077;28;20026;-70
2024/01/10 12:00:46;;;;;;;1342.07;999.90;;;29.60;99.90;;;;;;5053925;28;20489;-71
2024/01/10 12:03:13;;;;;;;1325.22;999.90;;;29.60;99.90;;;;;;5053357;28;20045;-71
2024/01/10 12:05:40;;;;;;;1320.65;999.90;;;29.60;99.90;;;;;;5057220;28;20074;-70
2024/01/10 12:08:08;;;;;;;1333.93;999.90;;;29.60;99.90;;;;;;5055081;28;20055;-70
2024/01/10 12:10:37;;;;;;;1346.53;999.90;;;29.50;99.90;;;;;;5054896;28;20107;-72
2024/01/10 12:13:04;;;;;;;1349.10;999.90;;;29.50;99.90;;;;;;5053506;28;20114;-71
2024/01/10 12:15:31;;;;;;;1344.97;999.90;;;29.50;99.90;;;;;;5055011;28;20466;-69
2024/01/10 12:17:57;;;;;;;1388.35;999.90;;;29.50;99.90;;;;;;5054252;28;20032;-72